sensor_id;sensor_type;location;lat;lon;timestamp;P1;durP1;ratioP1;P2;durP2;ratioP2
43319;SDS011;28914;48.722;9.332;2023-06-10T00:03:24;5.20;;;4.80;;
43319;SDS011;28914;48.722;9.332;2023-06-10T00:08:43;5.10;;;4.70;;
43319;SDS011;28914;48.722;9.332;2023-06-10T00:14:06;5.50;;;5.10;;
43319;SDS011;28914;48.722;9.332;2023-06-10T00:19:25;5.60;;;5.07;;
43319;SDS011;28914;48.722;9.332;2023-06-10T00:24:48;5.20;;;4.70;;
43319;SDS011;28914;48.722;9.332;2023-06-10T00:30:08;5.43;;;5.00;;
43319;SDS011;28914;48.722;9.332;2023-06-10T00:35:28;5.60;;;5.20;;
43319;SDS011;28914;48.722;9.332;2023-06-10T00:40:47;5.90;;;4.80;;
43319;SDS011;28914;48.722;9.332;2023-06-10T00:46:06;5.10;;;4.70;;
43319;SDS011;28914;48.722;9.332;2023-06-10T00:51:26;4.50;;;4.20;;
43319;SDS011;28914;48.722;9.332;2023-06-10T00:56:45;5.40;;;4.90;;
43319;SDS011;28914;48.722;9.332;2023-06-10T01:02:05;5.10;;;4.70;;
43319;SDS011;28914;48.722;9.332;2023-06-10T01:07:28;4.93;;;4.53;;
43319;SDS011;28914;48.722;9.332;2023-06-10T01:12:58;5.60;;;5.10;;
43319;SDS011;28914;48.722;9.332;2023-06-10T01:18:21;5.10;;;4.70;;
43319;SDS011;28914;48.722;9.332;2023-06-10T01:23:41;5.10;;;4.70;;
43319;SDS011;28914;48.722;9.332;2023-06-10T01:29:03;5.70;;;5.20;;
43319;SDS011;28914;48.722;9.332;2023-06-10T01:34:30;5.50;;;5.00;;
43319;SDS011;28914;48.722;9.332;2023-06-10T01:39:50;5.90;;;5.43;;
43319;SDS011;28914;48.722;9.332;2023-06-10T01:45:10;5.77;;;5.27;;
43319;SDS011;28914;48.722;9.332;2023-06-10T01:50:29;4.80;;;4.50;;
43319;SDS011;28914;48.722;9.332;2023-06-10T01:55:49;6.50;;;5.90;;
43319;SDS011;28914;48.722;9.332;2023-06-10T02:01:09;5.43;;;5.03;;
43319;SDS011;28914;48.722;9.332;2023-06-10T02:06:28;6.07;;;5.40;;
43319;SDS011;28914;48.722;9.332;2023-06-10T02:11:48;5.80;;;5.30;;
43319;SDS011;28914;48.722;9.332;2023-06-10T02:17:07;5.50;;;5.10;;
43319;SDS011;28914;48.722;9.332;2023-06-10T02:22:31;7.27;;;6.67;;
43319;SDS011;28914;48.722;9.332;2023-06-10T02:27:50;6.20;;;5.63;;
43319;SDS011;28914;48.722;9.332;2023-06-10T02:33:09;6.87;;;6.20;;
43319;SDS011;28914;48.722;9.332;2023-06-10T02:38:29;8.00;;;7.37;;
43319;SDS011;28914;48.722;9.332;2023-06-10T02:43:48;6.20;;;5.70;;
43319;SDS011;28914;48.722;9.332;2023-06-10T02:49:07;6.63;;;6.03;;
43319;SDS011;28914;48.722;9.332;2023-06-10T02:54:26;5.97;;;5.47;;
43319;SDS011;28914;48.722;9.332;2023-06-10T02:59:46;6.80;;;5.40;;
43319;SDS011;28914;48.722;9.332;2023-06-10T03:05:06;5.47;;;4.97;;
43319;SDS011;28914;48.722;9.332;2023-06-10T03:10:29;7.10;;;6.50;;
43319;SDS011;28914;48.722;9.332;2023-06-10T03:15:48;6.80;;;6.20;;
43319;SDS011;28914;48.722;9.332;2023-06-10T03:21:07;7.00;;;6.40;;
43319;SDS011;28914;48.722;9.332;2023-06-10T03:26:27;6.20;;;5.70;;
43319;SDS011;28914;48.722;9.332;2023-06-10T03:31:46;6.50;;;5.90;;
43319;SDS011;28914;48.722;9.332;2023-06-10T03:37:06;6.30;;;5.80;;
43319;SDS011;28914;48.722;9.332;2023-06-10T03:42:25;5.70;;;5.20;;
43319;SDS011;28914;48.722;9.332;2023-06-10T03:47:44;5.33;;;4.87;;
43319;SDS011;28914;48.722;9.332;2023-06-10T03:53:03;7.63;;;7.03;;
43319;SDS011;28914;48.722;9.332;2023-06-10T03:58:23;6.23;;;5.73;;
43319;SDS011;28914;48.722;9.332;2023-06-10T04:03:42;7.10;;;5.20;;
43319;SDS011;28914;48.722;9.332;2023-06-10T04:09:02;6.30;;;5.80;;
43319;SDS011;28914;48.722;9.332;2023-06-10T04:14:21;5.13;;;4.73;;
43319;SDS011;28914;48.722;9.332;2023-06-10T04:19:41;6.50;;;6.00;;
43319;SDS011;28914;48.722;9.332;2023-06-10T04:25:00;5.67;;;5.27;;
43319;SDS011;28914;48.722;9.332;2023-06-10T04:30:19;6.70;;;6.20;;
43319;SDS011;28914;48.722;9.332;2023-06-10T04:35:39;7.80;;;6.40;;
43319;SDS011;28914;48.722;9.332;2023-06-10T04:40:58;8.17;;;7.37;;
43319;SDS011;28914;48.722;9.332;2023-06-10T04:46:17;8.50;;;7.80;;
43319;SDS011;28914;48.722;9.332;2023-06-10T04:51:36;7.63;;;6.97;;
43319;SDS011;28914;48.722;9.332;2023-06-10T04:56:56;9.30;;;8.50;;
43319;SDS011;28914;48.722;9.332;2023-06-10T05:02:16;8.30;;;6.70;;
43319;SDS011;28914;48.722;9.332;2023-06-10T05:07:35;9.00;;;8.20;;
43319;SDS011;28914;48.722;9.332;2023-06-10T05:12:54;8.40;;;7.70;;
43319;SDS011;28914;48.722;9.332;2023-06-10T05:18:13;8.20;;;7.40;;
43319;SDS011;28914;48.722;9.332;2023-06-10T05:23:32;6.90;;;6.40;;
43319;SDS011;28914;48.722;9.332;2023-06-10T05:28:52;7.70;;;7.10;;
43319;SDS011;28914;48.722;9.332;2023-06-10T05:34:11;8.03;;;7.43;;
43319;SDS011;28914;48.722;9.332;2023-06-10T05:39:30;7.83;;;7.13;;
43319;SDS011;28914;48.722;9.332;2023-06-10T05:44:49;9.87;;;6.67;;
43319;SDS011;28914;48.722;9.332;2023-06-10T05:50:09;8.13;;;7.53;;
43319;SDS011;28914;48.722;9.332;2023-06-10T05:55:28;7.60;;;6.87;;
43319;SDS011;28914;48.722;9.332;2023-06-10T06:00:48;6.93;;;6.23;;
43319;SDS011;28914;48.722;9.332;2023-06-10T06:06:07;7.60;;;6.97;;
43319;SDS011;28914;48.722;9.332;2023-06-10T06:11:26;6.17;;;5.67;;
43319;SDS011;28914;48.722;9.332;2023-06-10T06:16:45;6.17;;;5.67;;
43319;SDS011;28914;48.722;9.332;2023-06-10T06:22:04;6.40;;;5.90;;
43319;SDS011;28914;48.722;9.332;2023-06-10T06:27:24;6.27;;;5.77;;
43319;SDS011;28914;48.722;9.332;2023-06-10T06:32:43;6.30;;;5.80;;
43319;SDS011;28914;48.722;9.332;2023-06-10T06:38:03;6.27;;;5.70;;
43319;SDS011;28914;48.722;9.332;2023-06-10T06:43:22;5.93;;;5.43;;
43319;SDS011;28914;48.722;9.332;2023-06-10T06:48:42;6.30;;;5.80;;
43319;SDS011;28914;48.722;9.332;2023-06-10T06:54:01;5.47;;;5.07;;
43319;SDS011;28914;48.722;9.332;2023-06-10T06:59:21;5.30;;;4.90;;
43319;SDS011;28914;48.722;9.332;2023-06-10T07:04:40;5.00;;;4.60;;
43319;SDS011;28914;48.722;9.332;2023-06-10T07:09:59;5.30;;;4.80;;
43319;SDS011;28914;48.722;9.332;2023-06-10T07:15:19;4.60;;;4.20;;
43319;SDS011;28914;48.722;9.332;2023-06-10T07:20:38;4.60;;;4.30;;
43319;SDS011;28914;48.722;9.332;2023-06-10T07:25:58;4.90;;;4.50;;
43319;SDS011;28914;48.722;9.332;2023-06-10T07:31:17;4.80;;;4.40;;
43319;SDS011;28914;48.722;9.332;2023-06-10T07:36:36;4.47;;;4.07;;
43319;SDS011;28914;48.722;9.332;2023-06-10T07:41:55;4.17;;;3.87;;
43319;SDS011;28914;48.722;9.332;2023-06-10T07:47:15;5.50;;;5.07;;
43319;SDS011;28914;48.722;9.332;2023-06-10T07:52:35;4.20;;;3.90;;
43319;SDS011;28914;48.722;9.332;2023-06-10T07:57:55;4.30;;;3.90;;
43319;SDS011;28914;48.722;9.332;2023-06-10T08:03:14;4.17;;;3.83;;
43319;SDS011;28914;48.722;9.332;2023-06-10T08:08:33;4.40;;;3.97;;
43319;SDS011;28914;48.722;9.332;2023-06-10T08:13:53;4.75;;;4.40;;
43319;SDS011;28914;48.722;9.332;2023-06-10T08:19:13;4.20;;;3.90;;
43319;SDS011;28914;48.722;9.332;2023-06-10T08:24:32;3.55;;;3.35;;
43319;SDS011;28914;48.722;9.332;2023-06-10T08:29:52;3.78;;;3.58;;
43319;SDS011;28914;48.722;9.332;2023-06-10T08:35:11;3.65;;;3.35;;
43319;SDS011;28914;48.722;9.332;2023-06-10T08:40:30;4.20;;;3.15;;
43319;SDS011;28914;48.722;9.332;2023-06-10T08:45:49;4.20;;;3.90;;
43319;SDS011;28914;48.722;9.332;2023-06-10T08:51:10;4.00;;;3.65;;
43319;SDS011;28914;48.722;9.332;2023-06-10T08:56:30;3.67;;;3.38;;
43319;SDS011;28914;48.722;9.332;2023-06-10T09:01:52;3.80;;;3.50;;
43319;SDS011;28914;48.722;9.332;2023-06-10T09:07:13;4.10;;;3.70;;
43319;SDS011;28914;48.722;9.332;2023-06-10T09:12:34;3.38;;;3.17;;
43319;SDS011;28914;48.722;9.332;2023-06-10T09:17:53;4.20;;;3.90;;
43319;SDS011;28914;48.722;9.332;2023-06-10T09:23:13;3.65;;;3.45;;
43319;SDS011;28914;48.722;9.332;2023-06-10T09:28:34;4.22;;;3.92;;
43319;SDS011;28914;48.722;9.332;2023-06-10T09:33:53;4.07;;;3.67;;
43319;SDS011;28914;48.722;9.332;2023-06-10T09:39:16;3.85;;;3.55;;
43319;SDS011;28914;48.722;9.332;2023-06-10T09:44:36;3.33;;;3.13;;
43319;SDS011;28914;48.722;9.332;2023-06-10T09:49:57;2.72;;;2.53;;
43319;SDS011;28914;48.722;9.332;2023-06-10T09:55:17;3.08;;;2.88;;
43319;SDS011;28914;48.722;9.332;2023-06-10T10:00:36;3.08;;;2.88;;
43319;SDS011;28914;48.722;9.332;2023-06-10T10:05:59;3.03;;;2.70;;
43319;SDS011;28914;48.722;9.332;2023-06-10T10:11:22;3.03;;;2.83;;
43319;SDS011;28914;48.722;9.332;2023-06-10T10:16:42;2.92;;;2.72;;
43319;SDS011;28914;48.722;9.332;2023-06-10T10:22:07;3.10;;;2.90;;
43319;SDS011;28914;48.722;9.332;2023-06-10T10:27:40;3.92;;;3.63;;
43319;SDS011;28914;48.722;9.332;2023-06-10T10:33:09;3.50;;;3.20;;
43319;SDS011;28914;48.722;9.332;2023-06-10T10:38:37;3.45;;;3.15;;
43319;SDS011;28914;48.722;9.332;2023-06-10T10:43:57;3.50;;;3.10;;
43319;SDS011;28914;48.722;9.332;2023-06-10T10:49:17;3.95;;;3.33;;
43319;SDS011;28914;48.722;9.332;2023-06-10T10:54:39;3.03;;;2.80;;
43319;SDS011;28914;48.722;9.332;2023-06-10T11:00:03;3.33;;;3.03;;
43319;SDS011;28914;48.722;9.332;2023-06-10T11:05:31;4.30;;;3.03;;
43319;SDS011;28914;48.722;9.332;2023-06-10T11:11:20;3.10;;;2.90;;
43319;SDS011;28914;48.722;9.332;2023-06-10T11:16:42;3.15;;;2.95;;
43319;SDS011;28914;48.722;9.332;2023-06-10T11:22:02;3.42;;;3.20;;
43319;SDS011;28914;48.722;9.332;2023-06-10T11:27:24;4.20;;;3.80;;
43319;SDS011;28914;48.722;9.332;2023-06-10T11:32:43;3.53;;;3.33;;
43319;SDS011;28914;48.722;9.332;2023-06-10T11:38:03;3.73;;;3.53;;
43319;SDS011;28914;48.722;9.332;2023-06-10T11:43:22;5.20;;;4.07;;
43319;SDS011;28914;48.722;9.332;2023-06-10T11:48:48;3.77;;;3.47;;
43319;SDS011;28914;48.722;9.332;2023-06-10T11:54:11;2.87;;;2.67;;
43319;SDS011;28914;48.722;9.332;2023-06-10T11:59:30;3.40;;;3.17;;
43319;SDS011;28914;48.722;9.332;2023-06-10T12:04:50;4.20;;;3.73;;
43319;SDS011;28914;48.722;9.332;2023-06-10T12:10:09;4.10;;;3.80;;
43319;SDS011;28914;48.722;9.332;2023-06-10T12:15:28;4.37;;;4.07;;
43319;SDS011;28914;48.722;9.332;2023-06-10T12:20:47;3.80;;;3.50;;
43319;SDS011;28914;48.722;9.332;2023-06-10T12:26:07;3.97;;;3.67;;
43319;SDS011;28914;48.722;9.332;2023-06-10T12:31:27;4.63;;;4.23;;
43319;SDS011;28914;48.722;9.332;2023-06-10T12:36:49;2.97;;;2.77;;
43319;SDS011;28914;48.722;9.332;2023-06-10T12:42:08;4.40;;;3.70;;
43319;SDS011;28914;48.722;9.332;2023-06-10T12:47:32;3.33;;;3.03;;
43319;SDS011;28914;48.722;9.332;2023-06-10T12:52:56;3.40;;;3.20;;
43319;SDS011;28914;48.722;9.332;2023-06-10T12:58:15;3.20;;;2.90;;
43319;SDS011;28914;48.722;9.332;2023-06-10T13:03:34;3.43;;;3.13;;
43319;SDS011;28914;48.722;9.332;2023-06-10T13:08:54;3.17;;;2.97;;
43319;SDS011;28914;48.722;9.332;2023-06-10T13:14:13;3.93;;;3.63;;
43319;SDS011;28914;48.722;9.332;2023-06-10T13:19:35;3.43;;;3.13;;
43319;SDS011;28914;48.722;9.332;2023-06-10T13:24:54;3.40;;;3.10;;
43319;SDS011;28914;48.722;9.332;2023-06-10T13:30:13;3.63;;;3.33;;
43319;SDS011;28914;48.722;9.332;2023-06-10T13:35:33;3.03;;;2.83;;
43319;SDS011;28914;48.722;9.332;2023-06-10T13:40:52;3.87;;;3.50;;
43319;SDS011;28914;48.722;9.332;2023-06-10T13:46:11;4.80;;;4.00;;
43319;SDS011;28914;48.722;9.332;2023-06-10T13:51:31;4.37;;;3.77;;
43319;SDS011;28914;48.722;9.332;2023-06-10T13:56:51;3.50;;;3.30;;
43319;SDS011;28914;48.722;9.332;2023-06-10T14:02:10;3.93;;;2.97;;
43319;SDS011;28914;48.722;9.332;2023-06-10T14:07:29;3.47;;;3.17;;
43319;SDS011;28914;48.722;9.332;2023-06-10T14:12:48;3.47;;;3.17;;
43319;SDS011;28914;48.722;9.332;2023-06-10T14:18:08;5.00;;;4.70;;
43319;SDS011;28914;48.722;9.332;2023-06-10T14:23:28;4.30;;;4.00;;
43319;SDS011;28914;48.722;9.332;2023-06-10T14:28:48;3.90;;;3.60;;
43319;SDS011;28914;48.722;9.332;2023-06-10T14:34:08;4.63;;;4.33;;
43319;SDS011;28914;48.722;9.332;2023-06-10T14:39:27;4.00;;;3.70;;
43319;SDS011;28914;48.722;9.332;2023-06-10T14:44:46;8.37;;;3.70;;
43319;SDS011;28914;48.722;9.332;2023-06-10T14:50:05;4.30;;;4.00;;
43319;SDS011;28914;48.722;9.332;2023-06-10T14:55:25;4.40;;;4.00;;
43319;SDS011;28914;48.722;9.332;2023-06-10T15:00:44;4.13;;;3.83;;
43319;SDS011;28914;48.722;9.332;2023-06-10T15:06:03;5.10;;;4.63;;
43319;SDS011;28914;48.722;9.332;2023-06-10T15:11:22;3.60;;;3.30;;
43319;SDS011;28914;48.722;9.332;2023-06-10T15:16:42;4.50;;;4.10;;
43319;SDS011;28914;48.722;9.332;2023-06-10T15:22:01;4.47;;;4.07;;
43319;SDS011;28914;48.722;9.332;2023-06-10T15:27:21;3.60;;;3.40;;
43319;SDS011;28914;48.722;9.332;2023-06-10T15:32:40;4.30;;;3.90;;
43319;SDS011;28914;48.722;9.332;2023-06-10T15:37:59;4.03;;;3.73;;
43319;SDS011;28914;48.722;9.332;2023-06-10T15:43:18;5.07;;;3.90;;
43319;SDS011;28914;48.722;9.332;2023-06-10T15:48:38;3.00;;;2.70;;
43319;SDS011;28914;48.722;9.332;2023-06-10T15:53:57;5.10;;;3.70;;
43319;SDS011;28914;48.722;9.332;2023-06-10T15:59:16;3.90;;;3.60;;
43319;SDS011;28914;48.722;9.332;2023-06-10T16:04:35;3.20;;;3.00;;
43319;SDS011;28914;48.722;9.332;2023-06-10T16:09:55;4.53;;;3.13;;
43319;SDS011;28914;48.722;9.332;2023-06-10T16:15:14;3.10;;;2.90;;
43319;SDS011;28914;48.722;9.332;2023-06-10T16:20:33;3.33;;;3.13;;
43319;SDS011;28914;48.722;9.332;2023-06-10T16:25:54;3.13;;;2.93;;
43319;SDS011;28914;48.722;9.332;2023-06-10T16:31:13;3.30;;;3.00;;
43319;SDS011;28914;48.722;9.332;2023-06-10T16:36:32;3.40;;;3.10;;
43319;SDS011;28914;48.722;9.332;2023-06-10T16:41:52;5.00;;;2.97;;
43319;SDS011;28914;48.722;9.332;2023-06-10T16:47:11;2.73;;;2.53;;
43319;SDS011;28914;48.722;9.332;2023-06-10T16:52:30;3.20;;;3.00;;
43319;SDS011;28914;48.722;9.332;2023-06-10T16:57:50;3.77;;;3.47;;
43319;SDS011;28914;48.722;9.332;2023-06-10T17:03:09;3.20;;;3.00;;
43319;SDS011;28914;48.722;9.332;2023-06-10T17:08:29;3.90;;;3.60;;
43319;SDS011;28914;48.722;9.332;2023-06-10T17:13:48;4.47;;;4.17;;
43319;SDS011;28914;48.722;9.332;2023-06-10T17:19:07;4.20;;;3.90;;
43319;SDS011;28914;48.722;9.332;2023-06-10T17:24:26;4.33;;;3.80;;
43319;SDS011;28914;48.722;9.332;2023-06-10T17:29:46;3.23;;;3.03;;
43319;SDS011;28914;48.722;9.332;2023-06-10T17:35:05;3.80;;;3.50;;
43319;SDS011;28914;48.722;9.332;2023-06-10T17:40:25;4.10;;;3.70;;
43319;SDS011;28914;48.722;9.332;2023-06-10T17:45:44;4.67;;;4.27;;
43319;SDS011;28914;48.722;9.332;2023-06-10T17:51:03;3.93;;;3.63;;
43319;SDS011;28914;48.722;9.332;2023-06-10T17:56:23;4.33;;;3.97;;
43319;SDS011;28914;48.722;9.332;2023-06-10T18:01:42;4.47;;;4.07;;
43319;SDS011;28914;48.722;9.332;2023-06-10T18:07:01;3.80;;;3.47;;
43319;SDS011;28914;48.722;9.332;2023-06-10T18:12:20;3.60;;;3.30;;
43319;SDS011;28914;48.722;9.332;2023-06-10T18:17:39;3.40;;;3.20;;
43319;SDS011;28914;48.722;9.332;2023-06-10T18:22:59;4.07;;;3.77;;
43319;SDS011;28914;48.722;9.332;2023-06-10T18:28:18;3.63;;;3.30;;
43319;SDS011;28914;48.722;9.332;2023-06-10T18:33:37;3.43;;;3.23;;
43319;SDS011;28914;48.722;9.332;2023-06-10T18:38:56;3.63;;;3.03;;
43319;SDS011;28914;48.722;9.332;2023-06-10T18:44:16;2.93;;;2.70;;
43319;SDS011;28914;48.722;9.332;2023-06-10T18:49:35;3.57;;;3.27;;
43319;SDS011;28914;48.722;9.332;2023-06-10T18:54:54;3.70;;;3.37;;
43319;SDS011;28914;48.722;9.332;2023-06-10T19:00:14;4.03;;;3.67;;
43319;SDS011;28914;48.722;9.332;2023-06-10T19:05:33;3.90;;;3.60;;
43319;SDS011;28914;48.722;9.332;2023-06-10T19:10:53;3.70;;;3.40;;
43319;SDS011;28914;48.722;9.332;2023-06-10T19:16:12;3.67;;;3.37;;
43319;SDS011;28914;48.722;9.332;2023-06-10T19:21:32;4.33;;;4.03;;
43319;SDS011;28914;48.722;9.332;2023-06-10T19:26:51;3.90;;;3.60;;
43319;SDS011;28914;48.722;9.332;2023-06-10T19:32:10;4.00;;;3.60;;
43319;SDS011;28914;48.722;9.332;2023-06-10T19:37:29;4.20;;;3.80;;
43319;SDS011;28914;48.722;9.332;2023-06-10T19:42:49;3.70;;;3.40;;
43319;SDS011;28914;48.722;9.332;2023-06-10T19:48:09;4.07;;;3.70;;
43319;SDS011;28914;48.722;9.332;2023-06-10T19:53:29;3.90;;;3.60;;
43319;SDS011;28914;48.722;9.332;2023-06-10T19:58:48;4.23;;;3.93;;
43319;SDS011;28914;48.722;9.332;2023-06-10T20:04:07;4.60;;;3.77;;
43319;SDS011;28914;48.722;9.332;2023-06-10T20:09:26;4.20;;;3.90;;
43319;SDS011;28914;48.722;9.332;2023-06-10T20:14:46;4.23;;;3.83;;
43319;SDS011;28914;48.722;9.332;2023-06-10T20:20:06;4.13;;;3.83;;
43319;SDS011;28914;48.722;9.332;2023-06-10T20:25:26;4.77;;;4.30;;
43319;SDS011;28914;48.722;9.332;2023-06-10T20:30:45;4.80;;;4.30;;
43319;SDS011;28914;48.722;9.332;2023-06-10T20:36:05;4.67;;;4.27;;
43319;SDS011;28914;48.722;9.332;2023-06-10T20:41:24;4.60;;;4.20;;
43319;SDS011;28914;48.722;9.332;2023-06-10T20:46:44;4.60;;;4.20;;
43319;SDS011;28914;48.722;9.332;2023-06-10T20:52:04;4.50;;;4.10;;
43319;SDS011;28914;48.722;9.332;2023-06-10T20:57:23;4.20;;;3.90;;
43319;SDS011;28914;48.722;9.332;2023-06-10T21:02:42;4.63;;;4.33;;
43319;SDS011;28914;48.722;9.332;2023-06-10T21:08:01;3.97;;;3.57;;
43319;SDS011;28914;48.722;9.332;2023-06-10T21:13:21;3.30;;;3.00;;
43319;SDS011;28914;48.722;9.332;2023-06-10T21:18:40;5.03;;;4.63;;
43319;SDS011;28914;48.722;9.332;2023-06-10T21:23:59;5.20;;;4.80;;
43319;SDS011;28914;48.722;9.332;2023-06-10T21:29:19;4.50;;;4.10;;
43319;SDS011;28914;48.722;9.332;2023-06-10T21:34:38;5.50;;;5.10;;
43319;SDS011;28914;48.722;9.332;2023-06-10T21:39:57;4.30;;;4.00;;
43319;SDS011;28914;48.722;9.332;2023-06-10T21:45:17;3.90;;;3.60;;
43319;SDS011;28914;48.722;9.332;2023-06-10T21:50:36;5.60;;;4.10;;
43319;SDS011;28914;48.722;9.332;2023-06-10T21:55:55;4.60;;;4.20;;
43319;SDS011;28914;48.722;9.332;2023-06-10T22:01:14;4.57;;;4.17;;
43319;SDS011;28914;48.722;9.332;2023-06-10T22:06:34;4.83;;;4.27;;
43319;SDS011;28914;48.722;9.332;2023-06-10T22:11:53;4.00;;;3.70;;
43319;SDS011;28914;48.722;9.332;2023-06-10T22:17:12;4.07;;;3.77;;
43319;SDS011;28914;48.722;9.332;2023-06-10T22:22:31;4.23;;;3.83;;
43319;SDS011;28914;48.722;9.332;2023-06-10T22:27:51;4.53;;;4.13;;
43319;SDS011;28914;48.722;9.332;2023-06-10T22:33:10;4.03;;;3.63;;
43319;SDS011;28914;48.722;9.332;2023-06-10T22:38:29;3.90;;;3.60;;
43319;SDS011;28914;48.722;9.332;2023-06-10T22:43:48;4.87;;;4.47;;
43319;SDS011;28914;48.722;9.332;2023-06-10T22:49:07;4.10;;;3.80;;
43319;SDS011;28914;48.722;9.332;2023-06-10T22:54:29;3.70;;;3.40;;
43319;SDS011;28914;48.722;9.332;2023-06-10T22:59:48;3.87;;;3.57;;
43319;SDS011;28914;48.722;9.332;2023-06-10T23:05:07;4.37;;;4.07;;
43319;SDS011;28914;48.722;9.332;2023-06-10T23:10:28;4.17;;;3.77;;
43319;SDS011;28914;48.722;9.332;2023-06-10T23:15:47;4.67;;;4.00;;
43319;SDS011;28914;48.722;9.332;2023-06-10T23:21:06;4.20;;;3.80;;
43319;SDS011;28914;48.722;9.332;2023-06-10T23:26:26;5.00;;;4.60;;
43319;SDS011;28914;48.722;9.332;2023-06-10T23:31:45;4.50;;;4.20;;
43319;SDS011;28914;48.722;9.332;2023-06-10T23:37:05;3.40;;;3.10;;
43319;SDS011;28914;48.722;9.332;2023-06-10T23:42:29;3.73;;;3.43;;
43319;SDS011;28914;48.722;9.332;2023-06-10T23:47:48;4.13;;;3.73;;
43319;SDS011;28914;48.722;9.332;2023-06-10T23:53:07;4.47;;;4.07;;
43319;SDS011;28914;48.722;9.332;2023-06-10T23:58:26;5.27;;;4.77;;
